Weather at Azraq Highway Strip

Public forecast

Using degrees Celsius for public forecast. Weather courtesy of forecast.io.

Closest aviation weather report (METAR) to Azraq Highway Strip

Closest report is Amman Civil (Marka International) Airport, 21.5 nm (39.8 km) W. Retrieved 2021/12/04 19:00 UTC (15 minutes ago):

OJAM 041900Z 00000KT 7000 NSC 14/03 Q1016 NOSIG

Closest aviation forecast (TAF) to Azraq Highway Strip

Closest forecast is Amman Civil (Marka International) Airport, 21.5 nm (39.8 km) W. Retrieved 2021/12/04 18:15 UTC (1 hour ago):

TAF OJAM 041700Z 0418/0524 10006KT 6000 NSC PROB30 0502/0507 3000 HZ BECMG 0507/0509 23010KT 5000 HZ SCT035 PROB40 TEMPO 0510/0518 24018KT 3000 BLDU BKN030